Terminal Aerodrome Forecast
Issued by NWS Chicago, IL

Home | Current Version | Previous Version | Text Only | Print | Product List | Glossary Off
Versions: 1 2 3 4 5 6 7 8 9 10 11 12 13 14 15 16 17 18 19 20 21 22 23 24 25 26 27 28 29 30 31 32 33

000
FTUS43 KLOT 212223 AAC
TAFRFD
TAF AMD
KRFD 212223Z 2122/2218 23007KT P6SM SCT025
     FM212330 25004KT 5SM BR OVC008
     FM220400 VRB02KT 2SM BR OVC004
     FM220700 VRB02KT 3/4SM BR OVC004
     FM221600 05008KT 2SM BR OVC006=

USA.gov is the U.S. government's official web portal to all federal, state and local government web resources and services.